createdAt,value
2019-04-26T00:01:01.370Z,8.24
2019-04-26T00:03:42.819Z,8.20
2019-04-26T00:06:14.598Z,8.28
2019-04-26T00:08:48.854Z,8.15
2019-04-26T00:11:41.345Z,8.02
2019-04-26T00:14:45.954Z,8.13
2019-04-26T00:17:30.787Z,7.94
2019-04-26T00:20:02.930Z,7.78
2019-04-26T00:22:33.509Z,7.84
2019-04-26T00:25:04.092Z,7.92
2019-04-26T00:27:34.484Z,7.79
2019-04-26T00:30:04.864Z,7.73
2019-04-26T00:32:36.954Z,7.76
2019-04-26T00:35:07.541Z,7.70
2019-04-26T00:37:38.775Z,7.58
2019-04-26T00:40:09.135Z,7.42
2019-04-26T00:42:39.549Z,7.36
2019-04-26T00:45:09.659Z,7.28
2019-04-26T00:47:40.441Z,7.20
2019-04-26T00:50:10.834Z,7.19
2019-04-26T00:52:42.031Z,7.18
2019-04-26T00:55:14.123Z,7.23
2019-04-26T00:57:44.876Z,7.29
2019-04-26T01:00:18.178Z,7.19
2019-04-26T01:02:51.991Z,7.13
2019-04-26T01:05:23.051Z,7.08
2019-04-26T01:07:55.912Z,6.90
2019-04-26T01:10:26.207Z,6.80
2019-04-26T01:12:56.403Z,6.73
2019-04-26T01:15:26.678Z,6.56
2019-04-26T01:17:56.825Z,6.80
2019-04-26T01:20:28.774Z,6.87
2019-04-26T01:23:02.836Z,6.89
2019-04-26T01:25:41.577Z,6.87
2019-04-26T01:28:17.092Z,6.87
2019-04-26T01:30:48.335Z,6.89
2019-04-26T01:33:20.025Z,6.80
2019-04-26T01:35:51.423Z,6.90
2019-04-26T01:38:22.075Z,6.84
2019-04-26T01:40:54.600Z,6.72
2019-04-26T01:43:37.745Z,6.60
2019-04-26T01:46:15.928Z,6.54
2019-04-26T01:48:59.044Z,6.58
2019-04-26T01:51:34.896Z,6.66
2019-04-26T01:54:05.152Z,6.63
2019-04-26T01:56:36.888Z,6.57
2019-04-26T01:59:09.118Z,6.65
2019-04-26T02:02:10.227Z,6.72
2019-04-26T02:04:43.488Z,6.68
2019-04-26T02:07:15.396Z,6.67
2019-04-26T02:09:45.761Z,6.65
2019-04-26T02:12:16.218Z,6.76
2019-04-26T02:14:46.501Z,6.89
2019-04-26T02:17:16.604Z,6.90
2019-04-26T02:19:46.916Z,6.80
2019-04-26T02:22:25.914Z,6.61
2019-04-26T02:24:56.721Z,6.52
2019-04-26T02:27:28.931Z,6.50
2019-04-26T02:30:00.317Z,6.52
2019-04-26T02:32:32.871Z,6.52
2019-04-26T02:35:04.342Z,6.47
2019-04-26T02:37:36.905Z,6.30
2019-04-26T02:40:12.515Z,6.29
2019-04-26T02:42:43.129Z,6.39
2019-04-26T02:45:58.716Z,6.44
2019-04-26T02:49:11.833Z,6.33
2019-04-26T02:51:51.880Z,6.40
2019-04-26T02:54:46.828Z,6.47
2019-04-26T02:57:28.050Z,6.43
2019-04-26T03:00:06.220Z,6.49
2019-04-26T03:02:39.096Z,6.49
2019-04-26T03:05:12.105Z,6.34
2019-04-26T03:08:10.140Z,6.46
2019-04-26T03:11:21.280Z,6.35
2019-04-26T03:14:13.099Z,6.34
2019-04-26T03:16:57.959Z,6.22
2019-04-26T03:19:47.489Z,6.37
2019-04-26T03:22:48.080Z,6.42
2019-04-26T03:25:35.207Z,6.46
2019-04-26T03:28:19.637Z,6.43
2019-04-26T03:31:13.033Z,6.30
2019-04-26T03:34:12.129Z,6.22
2019-04-26T03:37:27.610Z,6.10
2019-04-26T03:40:19.036Z,6.08
2019-04-26T03:43:14.870Z,6.11
2019-04-26T03:46:00.460Z,6.09
2019-04-26T03:48:57.331Z,6.12
2019-04-26T03:52:05.930Z,6.11
2019-04-26T03:54:39.276Z,6.05
2019-04-26T03:57:27.062Z,6.01
2019-04-26T04:00:25.822Z,6.03
2019-04-26T04:03:26.775Z,6.05
2019-04-26T04:05:58.302Z,5.98
2019-04-26T04:08:48.221Z,6.01
2019-04-26T04:11:22.382Z,5.91
2019-04-26T04:14:10.592Z,5.84
2019-04-26T04:17:34.545Z,5.80
2019-04-26T04:21:14.056Z,5.77
2019-04-26T04:24:04.895Z,5.84
2019-04-26T04:27:04.761Z,5.91
2019-04-26T04:29:54.507Z,5.96
2019-04-26T04:33:01.340Z,5.95
2019-04-26T04:35:34.453Z,6.05
2019-04-26T04:38:18.077Z,6.24
2019-04-26T04:41:17.511Z,6.29
2019-04-26T04:44:01.386Z,6.32
2019-04-26T04:47:25.623Z,6.43
2019-04-26T04:50:25.257Z,6.57
2019-04-26T04:53:23.339Z,6.87
2019-04-26T04:56:31.726Z,6.94
2019-04-26T04:59:05.516Z,6.92
2019-04-26T05:02:08.531Z,7.03
2019-04-26T05:05:26.658Z,7.06
2019-04-26T05:08:21.911Z,7.05
2019-04-26T05:11:04.401Z,7.12
2019-04-26T05:13:43.761Z,7.18
2019-04-26T05:17:14.006Z,7.29
2019-04-26T05:20:25.413Z,7.37
2019-04-26T05:23:37.205Z,7.47
2019-04-26T05:27:12.361Z,7.48
2019-04-26T05:30:28.472Z,7.46
2019-04-26T05:33:36.276Z,7.47
2019-04-26T05:36:32.919Z,7.57
2019-04-26T05:39:41.397Z,7.64
2019-04-26T05:43:28.115Z,7.73
2019-04-26T05:46:53.892Z,7.85
2019-04-26T05:50:14.965Z,7.98
2019-04-26T05:53:20.670Z,8.00
2019-04-26T05:56:15.977Z,8.03
2019-04-26T05:58:59.796Z,8.03
2019-04-26T06:02:25.393Z,8.08
2019-04-26T06:05:32.679Z,8.12
2019-04-26T06:08:17.580Z,8.15
2019-04-26T06:10:55.914Z,8.23
2019-04-26T06:14:10.505Z,8.26
2019-04-26T06:17:27.602Z,8.23
2019-04-26T06:20:37.371Z,8.26
2019-04-26T06:23:46.966Z,8.19
2019-04-26T06:27:14.295Z,8.21
2019-04-26T06:29:56.592Z,8.26
2019-04-26T06:33:00.268Z,8.30
2019-04-26T06:35:28.499Z,8.34
2019-04-26T06:38:50.420Z,8.34
2019-04-26T06:41:58.861Z,8.36
2019-04-26T06:44:37.247Z,8.21
2019-04-26T06:47:32.820Z,8.29
2019-04-26T06:50:16.004Z,8.36
2019-04-26T06:52:59.845Z,8.26
2019-04-26T06:55:39.566Z,8.26
2019-04-26T06:58:30.021Z,8.29
2019-04-26T07:01:29.798Z,8.33
2019-04-26T07:04:43.276Z,8.39
2019-04-26T07:07:38.338Z,8.39
2019-04-26T07:10:19.693Z,8.45
2019-04-26T07:13:28.668Z,8.53
2019-04-26T07:16:22.819Z,8.55
2019-04-26T07:19:55.289Z,8.56
2019-04-26T07:23:15.253Z,8.66
2019-04-26T07:26:10.192Z,8.74
2019-04-26T07:29:09.313Z,8.82
2019-04-26T07:31:51.285Z,8.82
2019-04-26T07:34:55.895Z,8.83
2019-04-26T07:37:53.635Z,8.80
2019-04-26T07:40:52.645Z,8.88
2019-04-26T07:44:15.228Z,8.89
2019-04-26T07:47:30.103Z,8.86
2019-04-26T07:50:47.639Z,8.89
2019-04-26T07:53:48.671Z,8.92
2019-04-26T07:56:28.917Z,8.97
2019-04-26T07:59:42.669Z,9.08
2019-04-26T08:02:38.628Z,9.21
2019-04-26T08:05:26.802Z,9.36
2019-04-26T08:07:59.033Z,9.36
2019-04-26T08:10:31.464Z,9.29
2019-04-26T08:13:08.021Z,9.48
2019-04-26T08:16:01.798Z,9.64
2019-04-26T08:18:39.658Z,9.71
2019-04-26T08:21:26.143Z,9.77
2019-04-26T08:24:07.837Z,9.74
2019-04-26T08:26:39.928Z,9.76
2019-04-26T08:29:12.620Z,9.81
2019-04-26T08:31:44.852Z,9.83
2019-04-26T08:34:20.635Z,9.77
2019-04-26T08:37:01.919Z,9.72
2019-04-26T08:39:44.767Z,9.67
2019-04-26T08:42:12.072Z,9.66
2019-04-26T08:44:52.040Z,9.70
2019-04-26T08:47:30.530Z,9.62
2019-04-26T08:50:20.252Z,9.57
2019-04-26T08:52:51.663Z,9.56
2019-04-26T08:55:23.087Z,9.65
2019-04-26T08:57:55.032Z,9.71
2019-04-26T09:00:45.474Z,9.73
2019-04-26T09:03:32.540Z,9.75
2019-04-26T09:06:31.406Z,9.86
2019-04-26T09:09:04.066Z,9.79
2019-04-26T09:11:37.287Z,9.64
2019-04-26T09:14:09.482Z,9.63
2019-04-26T09:16:49.836Z,9.63
2019-04-26T09:19:12.112Z,9.60
2019-04-26T09:21:55.365Z,9.63
2019-04-26T09:24:41.392Z,9.81
2019-04-26T09:27:22.354Z,9.71
2019-04-26T09:30:06.702Z,9.78
2019-04-26T09:32:45.561Z,9.83
2019-04-26T09:35:16.438Z,9.71
2019-04-26T09:37:47.158Z,9.87
2019-04-26T09:40:21.556Z,9.84
2019-04-26T09:43:10.513Z,9.89
2019-04-26T09:46:02.058Z,9.99
2019-04-26T09:48:43.671Z,9.73
2019-04-26T09:51:14.192Z,10.09
2019-04-26T09:53:44.754Z,10.11
2019-04-26T09:56:15.400Z,10.22
2019-04-26T09:58:45.870Z,10.25
2019-04-26T10:01:19.662Z,10.20
2019-04-26T10:03:49.142Z,10.23
2019-04-26T10:06:19.411Z,10.28
2019-04-26T10:08:52.321Z,10.38
2019-04-26T10:11:24.160Z,10.20
2019-04-26T10:14:03.113Z,10.31
2019-04-26T10:16:52.766Z,10.18
2019-04-26T10:19:39.649Z,10.22
2019-04-26T10:22:10.118Z,10.18
2019-04-26T10:24:40.432Z,10.18
2019-04-26T10:27:11.515Z,10.23
2019-04-26T10:29:41.798Z,10.32
2019-04-26T10:32:12.130Z,10.30
2019-04-26T10:34:42.793Z,10.34
2019-04-26T10:37:14.471Z,10.30
2019-04-26T10:39:44.643Z,10.45
2019-04-26T10:42:14.890Z,10.51
2019-04-26T10:44:45.373Z,10.60
2019-04-26T10:47:16.061Z,10.32
2019-04-26T10:49:47.531Z,10.38
2019-04-26T10:52:24.797Z,10.49
2019-04-26T10:55:07.689Z,10.49
2019-04-26T10:57:40.106Z,10.56
2019-04-26T11:00:19.046Z,10.63
2019-04-26T11:02:49.429Z,10.39
2019-04-26T11:05:19.614Z,10.49
2019-04-26T11:07:49.929Z,10.37
2019-04-26T11:10:20.325Z,10.39
2019-04-26T11:12:50.842Z,10.39
2019-04-26T11:15:21.407Z,10.42
2019-04-26T11:17:52.225Z,10.49
2019-04-26T11:20:22.546Z,10.59
2019-04-26T11:23:08.227Z,10.66
2019-04-26T11:25:46.411Z,10.84
2019-04-26T11:28:36.970Z,10.98
2019-04-26T11:31:27.650Z,10.82
2019-04-26T11:34:19.073Z,10.95
2019-04-26T11:36:58.155Z,11.11
2019-04-26T11:39:50.283Z,11.03
2019-04-26T11:42:27.527Z,11.09
2019-04-26T11:45:19.400Z,10.93
2019-04-26T11:47:56.763Z,11.04
2019-04-26T11:50:48.252Z,11.11
2019-04-26T11:53:40.630Z,11.17
2019-04-26T11:56:17.552Z,11.15
2019-04-26T11:59:07.116Z,11.26
2019-04-26T12:01:44.169Z,11.16
2019-04-26T12:04:33.275Z,11.28
2019-04-26T12:07:19.736Z,11.37
2019-04-26T12:09:51.911Z,11.63
2019-04-26T12:12:22.598Z,12.06
2019-04-26T12:14:53.809Z,12.21
2019-04-26T12:17:26.877Z,12.48
2019-04-26T12:19:57.110Z,13.06
2019-04-26T12:22:27.552Z,13.56
2019-04-26T12:24:57.846Z,14.08
2019-04-26T12:27:30.699Z,13.98
2019-04-26T12:30:00.116Z,13.77
2019-04-26T12:32:30.478Z,13.65
2019-04-26T12:35:01.222Z,13.62
2019-04-26T12:37:32.662Z,13.40
2019-04-26T12:40:03.384Z,14.02
2019-04-26T12:42:34.148Z,13.63
2019-04-26T12:45:33.193Z,13.11
2019-04-26T12:48:07.985Z,13.51
2019-04-26T12:50:38.713Z,13.74
2019-04-26T12:53:12.499Z,13.29
2019-04-26T12:55:42.911Z,12.97
2019-04-26T12:58:16.376Z,12.36
2019-04-26T13:00:53.649Z,12.58
2019-04-26T13:03:20.747Z,12.01
2019-04-26T13:05:57.670Z,12.04
2019-04-26T13:08:23.729Z,12.07
2019-04-26T13:11:19.132Z,11.95
2019-04-26T13:14:17.668Z,11.79
2019-04-26T13:16:57.141Z,11.76
2019-04-26T13:19:27.186Z,12.15
2019-04-26T13:21:58.078Z,11.98
2019-04-26T13:24:28.639Z,12.09
2019-04-26T13:26:59.337Z,12.25
2019-04-26T13:29:31.188Z,12.22
2019-04-26T13:32:02.876Z,11.87
2019-04-26T13:34:37.176Z,11.84
2019-04-26T13:37:06.049Z,11.90
2019-04-26T13:39:36.467Z,11.97
2019-04-26T13:42:09.604Z,11.72
2019-04-26T13:45:10.401Z,11.95
2019-04-26T13:48:12.229Z,12.02
2019-04-26T13:50:50.417Z,12.12
2019-04-26T13:53:22.234Z,12.04
2019-04-26T13:55:52.854Z,11.82
2019-04-26T13:58:25.644Z,11.89
2019-04-26T14:00:57.433Z,12.29
2019-04-26T14:03:31.563Z,12.26
2019-04-26T14:06:00.413Z,12.34
2019-04-26T14:08:31.098Z,12.93
2019-04-26T14:11:01.600Z,12.98
2019-04-26T14:13:32.002Z,13.08
2019-04-26T14:16:04.617Z,12.85
2019-04-26T14:18:38.958Z,12.84
2019-04-26T14:21:08.440Z,12.82
2019-04-26T14:24:00.813Z,12.11
2019-04-26T14:26:39.856Z,11.96
2019-04-26T14:29:09.066Z,11.47
2019-04-26T14:31:39.585Z,11.63
2019-04-26T14:34:12.063Z,11.54
2019-04-26T14:36:43.831Z,11.22
2019-04-26T14:39:19.414Z,11.36
2019-04-26T14:41:47.097Z,11.86
2019-04-26T14:44:17.828Z,12.20
2019-04-26T14:46:49.381Z,12.83
2019-04-26T14:49:23.345Z,12.74
2019-04-26T14:51:56.056Z,13.03
2019-04-26T14:54:25.628Z,12.92
2019-04-26T14:56:59.736Z,12.91
2019-04-26T14:59:50.553Z,13.14
2019-04-26T15:02:43.314Z,13.27
2019-04-26T15:05:22.122Z,13.53
2019-04-26T15:07:53.797Z,14.09
2019-04-26T15:10:43.997Z,14.27
2019-04-26T15:13:17.000Z,14.62
2019-04-26T15:15:39.535Z,14.81
2019-04-26T15:18:09.833Z,14.22
2019-04-26T15:20:40.350Z,13.32
2019-04-26T15:23:10.838Z,13.35
2019-04-26T15:25:41.924Z,13.22
2019-04-26T15:28:14.639Z,13.07
2019-04-26T15:30:46.845Z,13.01
2019-04-26T15:33:17.583Z,13.21
2019-04-26T15:35:48.877Z,13.05
2019-04-26T15:38:19.188Z,13.06
2019-04-26T15:41:11.783Z,13.35
2019-04-26T15:43:58.045Z,13.72
2019-04-26T15:46:48.264Z,13.60
2019-04-26T15:49:36.879Z,13.59
2019-04-26T15:52:07.848Z,13.68
2019-04-26T15:54:38.282Z,13.61
2019-04-26T15:57:09.304Z,13.24
2019-04-26T15:59:43.447Z,13.13
2019-04-26T16:02:13.735Z,13.12
2019-04-26T16:04:47.487Z,13.28
2019-04-26T16:07:27.011Z,12.98
2019-04-26T16:09:49.374Z,13.09
2019-04-26T16:12:25.873Z,12.85
2019-04-26T16:14:52.479Z,12.81
2019-04-26T16:17:25.947Z,12.97
2019-04-26T16:20:00.075Z,12.89
2019-04-26T16:22:30.077Z,12.89
2019-04-26T16:25:04.016Z,12.71
2019-04-26T16:27:34.999Z,12.65
2019-04-26T16:30:32.947Z,12.49
2019-04-26T16:33:14.868Z,12.33
2019-04-26T16:35:45.641Z,11.83
2019-04-26T16:38:35.573Z,11.80
2019-04-26T16:41:06.592Z,11.66
2019-04-26T16:43:40.641Z,11.54
2019-04-26T16:46:12.561Z,11.52
2019-04-26T16:48:44.224Z,11.50
2019-04-26T16:51:14.408Z,11.46
2019-04-26T16:54:06.707Z,11.58
2019-04-26T16:56:36.987Z,11.59
2019-04-26T16:59:27.537Z,11.67
2019-04-26T17:02:04.556Z,11.81
2019-04-26T17:04:54.166Z,11.89
2019-04-26T17:07:31.107Z,11.96
2019-04-26T17:10:24.703Z,11.99
2019-04-26T17:13:15.202Z,12.01
2019-04-26T17:15:58.030Z,11.96
2019-04-26T17:18:44.527Z,11.87
2019-04-26T17:21:25.633Z,11.80
2019-04-26T17:24:19.620Z,11.69
2019-04-26T17:26:57.668Z,11.60
2019-04-26T17:29:28.009Z,11.50
2019-04-26T17:31:58.466Z,11.42
2019-04-26T17:34:30.263Z,11.39
2019-04-26T17:37:02.373Z,11.32
2019-04-26T17:39:32.733Z,11.23
2019-04-26T17:42:03.197Z,11.20
2019-04-26T17:44:34.293Z,11.19
2019-04-26T17:47:08.351Z,11.15
2019-04-26T17:49:39.163Z,11.09
2019-04-26T17:52:11.639Z,11.01
2019-04-26T17:54:47.571Z,10.99
2019-04-26T17:57:14.883Z,10.89
2019-04-26T17:59:48.873Z,10.82
2019-04-26T18:02:25.812Z,10.78
2019-04-26T18:05:00.199Z,10.73
2019-04-26T18:07:40.230Z,10.65
2019-04-26T18:09:57.054Z,10.60
2019-04-26T18:12:28.017Z,10.48
2019-04-26T18:15:00.086Z,10.53
2019-04-26T18:18:05.262Z,10.41
2019-04-26T18:21:00.914Z,10.39
2019-04-26T18:23:31.466Z,10.28
2019-04-26T18:26:03.288Z,10.29
2019-04-26T18:28:33.968Z,10.27
2019-04-26T18:31:07.613Z,10.19
2019-04-26T18:33:38.316Z,10.19
2019-04-26T18:36:09.915Z,10.17
2019-04-26T18:38:43.099Z,10.06
2019-04-26T18:41:13.649Z,10.09
2019-04-26T18:43:44.214Z,10.03
2019-04-26T18:46:24.090Z,10.00
2019-04-26T18:48:54.708Z,9.89
2019-04-26T18:51:25.033Z,9.93
2019-04-26T18:54:17.688Z,9.88
2019-04-26T18:56:51.179Z,9.91
2019-04-26T18:59:35.099Z,9.92
2019-04-26T19:02:35.028Z,9.92
2019-04-26T19:05:29.965Z,9.89
2019-04-26T19:08:07.598Z,9.91
2019-04-26T19:11:01.090Z,9.85
2019-04-26T19:14:06.331Z,9.86
2019-04-26T19:17:06.855Z,9.81
2019-04-26T19:20:04.246Z,9.77
2019-04-26T19:22:49.540Z,9.70
2019-04-26T19:25:38.672Z,9.68
2019-04-26T19:28:13.646Z,9.66
2019-04-26T19:30:52.803Z,9.62
2019-04-26T19:33:22.839Z,9.57
2019-04-26T19:35:53.156Z,9.47
2019-04-26T19:38:23.576Z,9.41
2019-04-26T19:40:54.078Z,9.34
2019-04-26T19:43:31.043Z,9.32
2019-04-26T19:46:17.097Z,9.30
2019-04-26T19:49:14.462Z,9.31
2019-04-26T19:52:03.849Z,9.27
2019-04-26T19:54:54.906Z,9.25
2019-04-26T19:57:42.755Z,9.19
2019-04-26T20:00:13.402Z,9.15
2019-04-26T20:02:44.376Z,9.13
2019-04-26T20:05:17.205Z,9.08
2019-04-26T20:07:46.871Z,9.01
2019-04-26T20:10:17.113Z,8.97
2019-04-26T20:12:47.368Z,8.92
2019-04-26T20:15:26.037Z,8.87
2019-04-26T20:17:59.222Z,8.80
2019-04-26T20:20:23.933Z,8.77
2019-04-26T20:22:54.785Z,8.76
2019-04-26T20:25:26.440Z,8.72
2019-04-26T20:27:59.830Z,8.68
2019-04-26T20:30:47.795Z,8.70
2019-04-26T20:33:18.644Z,8.74
2019-04-26T20:35:48.962Z,8.68
2019-04-26T20:38:19.572Z,8.62
2019-04-26T20:40:53.357Z,8.52
2019-04-26T20:43:26.398Z,8.47
2019-04-26T20:46:10.544Z,8.41
2019-04-26T20:48:30.307Z,8.40
2019-04-26T20:50:59.306Z,8.39
2019-04-26T20:53:30.864Z,8.40
2019-04-26T20:56:09.368Z,8.34
2019-04-26T20:58:37.464Z,8.24
2019-04-26T21:01:10.971Z,8.21
2019-04-26T21:03:42.843Z,8.14
2019-04-26T21:06:13.892Z,8.15
2019-04-26T21:08:44.156Z,8.12
2019-04-26T21:11:15.264Z,8.08
2019-04-26T21:13:45.742Z,8.01
2019-04-26T21:16:16.296Z,7.96
2019-04-26T21:18:46.775Z,8.00
2019-04-26T21:21:17.165Z,7.98
2019-04-26T21:23:49.469Z,7.96
2019-04-26T21:26:42.440Z,7.95
2019-04-26T21:29:44.615Z,7.98
2019-04-26T21:32:35.489Z,7.77
2019-04-26T21:35:09.668Z,7.69
2019-04-26T21:37:45.199Z,7.77
2019-04-26T21:40:26.275Z,7.76
2019-04-26T21:42:59.630Z,7.81
2019-04-26T21:45:31.064Z,7.74
2019-04-26T21:48:02.506Z,7.77
2019-04-26T21:50:38.650Z,7.77
2019-04-26T21:53:06.979Z,7.76
2019-04-26T21:55:38.688Z,7.70
2019-04-26T21:58:09.402Z,7.65
2019-04-26T22:00:58.399Z,7.61
2019-04-26T22:03:29.273Z,7.56
2019-04-26T22:05:59.834Z,7.53
2019-04-26T22:08:34.681Z,7.49
2019-04-26T22:11:05.244Z,7.43
2019-04-26T22:13:44.730Z,7.43
2019-04-26T22:16:38.149Z,7.31
2019-04-26T22:19:27.980Z,7.38
2019-04-26T22:22:08.277Z,7.38
2019-04-26T22:24:39.405Z,7.42
2019-04-26T22:27:09.754Z,7.38
2019-04-26T22:29:40.093Z,7.41
2019-04-26T22:32:15.071Z,7.38
2019-04-26T22:34:46.099Z,7.37
2019-04-26T22:37:28.889Z,7.35
2019-04-26T22:39:47.138Z,7.35
2019-04-26T22:42:18.609Z,7.29
2019-04-26T22:45:09.226Z,7.29
2019-04-26T22:47:54.669Z,7.27
2019-04-26T22:50:25.247Z,7.26
2019-04-26T22:52:55.933Z,7.25
2019-04-26T22:55:27.594Z,7.24
2019-04-26T22:57:58.339Z,7.25
2019-04-26T23:00:32.734Z,7.22
2019-04-26T23:03:07.169Z,7.20
2019-04-26T23:05:39.164Z,7.20
2019-04-26T23:08:07.817Z,7.22
2019-04-26T23:10:44.336Z,7.24
2019-04-26T23:13:33.893Z,7.21
2019-04-26T23:16:11.429Z,7.20
2019-04-26T23:19:00.817Z,7.21
2019-04-26T23:21:37.457Z,7.22
2019-04-26T23:24:11.514Z,7.13
2019-04-26T23:26:41.696Z,7.11
2019-04-26T23:29:17.468Z,7.07
2019-04-26T23:31:44.672Z,7.00
2019-04-26T23:34:15.076Z,7.02
2019-04-26T23:36:49.178Z,7.04
2019-04-26T23:39:17.545Z,7.03
2019-04-26T23:41:47.784Z,6.98
2019-04-26T23:44:18.019Z,7.04
2019-04-26T23:46:48.135Z,6.99
2019-04-26T23:49:20.508Z,6.99
2019-04-26T23:51:50.963Z,7.01
2019-04-26T23:54:21.484Z,7.05
2019-04-26T23:56:55.737Z,7.08
2019-04-26T23:59:24.860Z,7.12
